TimeCST,TemperatureF,Dew PointF,Humidity,Sea Level PressureIn,VisibilityMPH,Wind Direction,Wind SpeedMPH,Gust SpeedMPH,PrecipitationIn,Events,Conditions,WindDirDegrees,DateUTC
12:53 AM,15.1,10.9,84,30.09,10.0,East,8.1,-,N/A,,Overcast,80,2013-12-16 06:53:00
1:43 AM,14.0,10.0,84,30.06,10.0,East,5.8,-,N/A,,Mostly Cloudy,80,2013-12-16 07:43:00
1:53 AM,14.0,10.0,84,30.10,10.0,East,5.8,-,N/A,,Overcast,80,2013-12-16 07:53:00
2:53 AM,14.0,10.0,84,30.11,10.0,ENE,8.1,-,N/A,,Overcast,60,2013-12-16 08:53:00
3:37 AM,14.0,10.0,84,30.06,10.0,East,6.9,-,N/A,,Overcast,80,2013-12-16 09:37:00
3:53 AM,15.1,10.0,80,30.10,10.0,East,8.1,-,N/A,,Overcast,80,2013-12-16 09:53:00
4:53 AM,14.0,10.0,84,30.09,10.0,East,9.2,-,N/A,,Overcast,80,2013-12-16 10:53:00
5:53 AM,14.0,10.0,84,30.10,9.0,ESE,5.8,-,N/A,,Overcast,110,2013-12-16 11:53:00
6:53 AM,14.0,10.0,84,30.10,9.0,East,8.1,-,N/A,,Overcast,100,2013-12-16 12:53:00
7:45 AM,15.1,10.9,84,30.03,7.0,SE,9.2,-,N/A,,Overcast,130,2013-12-16 13:45:00
7:53 AM,15.1,10.9,84,30.09,7.0,SE,6.9,-,N/A,,Overcast,140,2013-12-16 13:53:00
8:53 AM,16.0,10.9,81,30.11,8.0,SE,8.1,-,N/A,,Overcast,130,2013-12-16 14:53:00
9:35 AM,16.0,12.0,84,30.06,8.0,SE,8.1,-,N/A,,Overcast,130,2013-12-16 15:35:00
9:53 AM,17.1,12.0,81,30.12,8.0,SSE,6.9,-,N/A,,Overcast,150,2013-12-16 15:53:00
10:22 AM,17.1,12.0,81,30.05,8.0,SSE,5.8,-,N/A,,Overcast,150,2013-12-16 16:22:00
10:53 AM,18.0,14.0,84,30.09,5.0,SSE,8.1,-,N/A,,Overcast,160,2013-12-16 16:53:00
11:53 AM,19.9,16.0,85,30.05,4.0,SSE,5.8,-,N/A,,Overcast,160,2013-12-16 17:53:00
12:53 PM,21.0,18.0,88,30.03,4.0,South,5.8,-,N/A,,Overcast,170,2013-12-16 18:53:00
1:45 PM,21.9,19.0,89,29.98,2.5,SSW,8.1,-,N/A,,Overcast,210,2013-12-16 19:45:00
1:53 PM,21.9,18.0,85,30.03,2.5,SW,6.9,-,N/A,,Overcast,220,2013-12-16 19:53:00
2:06 PM,21.9,19.0,89,29.98,3.0,SSW,8.1,-,N/A,,Overcast,210,2013-12-16 20:06:00
2:53 PM,23.0,19.9,88,30.04,3.0,West,8.1,-,N/A,,Overcast,260,2013-12-16 20:53:00
3:53 PM,24.1,21.0,88,30.07,3.0,WNW,8.1,-,N/A,,Overcast,290,2013-12-16 21:53:00
4:19 PM,24.1,21.0,88,30.04,3.0,WNW,6.9,-,N/A,,Overcast,300,2013-12-16 22:19:00
4:53 PM,25.0,21.0,85,30.09,5.0,NW,10.4,-,N/A,,Overcast,310,2013-12-16 22:53:00
5:53 PM,24.1,19.9,84,30.10,6.0,NW,9.2,-,N/A,,Overcast,320,2013-12-16 23:53:00
6:53 PM,25.0,19.9,81,30.10,6.0,NW,11.5,-,N/A,,Haze,320,2013-12-17 00:53:00
7:28 PM,21.9,18.0,85,30.07,5.0,WNW,6.9,-,N/A,,Scattered Clouds,300,2013-12-17 01:28:00
7:53 PM,21.0,18.0,88,30.13,5.0,WNW,8.1,-,N/A,,Clear,300,2013-12-17 01:53:00
8:53 PM,19.0,17.1,92,30.14,4.0,WNW,9.2,-,N/A,,Clear,300,2013-12-17 02:53:00
9:53 PM,19.9,17.1,89,30.14,4.0,West,4.6,-,N/A,,Overcast,280,2013-12-17 03:53:00
10:53 PM,21.9,19.0,89,30.17,5.0,WNW,6.9,-,N/A,,Overcast,300,2013-12-17 04:53:00
11:53 PM,21.0,19.0,92,30.14,4.0,Calm,Calm,-,N/A,,Overcast,0,2013-12-17 05:53:00